sensor_id;sensor_type;location;lat;lon;timestamp;temperature;humidity
37242;DHT22;23135;51.078;12.108;2022-11-20T00:00:09;-5.60;99.90
37242;DHT22;23135;51.078;12.108;2022-11-20T00:02:35;-5.60;99.90
37242;DHT22;23135;51.078;12.108;2022-11-20T00:05:00;-5.60;99.90
37242;DHT22;23135;51.078;12.108;2022-11-20T00:07:26;-5.70;99.90
37242;DHT22;23135;51.078;12.108;2022-11-20T00:09:51;-5.70;99.90
37242;DHT22;23135;51.078;12.108;2022-11-20T00:12:17;-5.70;99.90
37242;DHT22;23135;51.078;12.108;2022-11-20T00:14:43;-5.70;99.90
37242;DHT22;23135;51.078;12.108;2022-11-20T00:17:08;-5.70;99.90
37242;DHT22;23135;51.078;12.108;2022-11-20T00:19:34;-5.70;99.90
37242;DHT22;23135;51.078;12.108;2022-11-20T00:21:59;-5.80;99.90
37242;DHT22;23135;51.078;12.108;2022-11-20T00:24:25;-5.80;99.90
37242;DHT22;23135;51.078;12.108;2022-11-20T00:26:51;-5.80;99.90
37242;DHT22;23135;51.078;12.108;2022-11-20T00:29:16;-5.80;99.90
37242;DHT22;23135;51.078;12.108;2022-11-20T00:31:42;-5.80;99.90
37242;DHT22;23135;51.078;12.108;2022-11-20T00:34:09;-5.90;99.90
37242;DHT22;23135;51.078;12.108;2022-11-20T00:36:35;-5.90;99.90
37242;DHT22;23135;51.078;12.108;2022-11-20T00:39:00;-5.90;99.90
37242;DHT22;23135;51.078;12.108;2022-11-20T00:41:27;-5.90;99.90
37242;DHT22;23135;51.078;12.108;2022-11-20T00:43:54;-5.90;99.90
37242;DHT22;23135;51.078;12.108;2022-11-20T00:46:24;-6.00;99.90
37242;DHT22;23135;51.078;12.108;2022-11-20T00:48:49;-6.00;99.90
37242;DHT22;23135;51.078;12.108;2022-11-20T00:51:21;-6.10;99.90
37242;DHT22;23135;51.078;12.108;2022-11-20T00:53:47;-6.20;99.90
37242;DHT22;23135;51.078;12.108;2022-11-20T00:56:15;-6.20;99.90
37242;DHT22;23135;51.078;12.108;2022-11-20T00:58:43;-6.20;99.90
37242;DHT22;23135;51.078;12.108;2022-11-20T01:01:17;-6.20;99.90
37242;DHT22;23135;51.078;12.108;2022-11-20T01:03:45;-6.20;99.90
37242;DHT22;23135;51.078;12.108;2022-11-20T01:06:14;-6.20;99.90
37242;DHT22;23135;51.078;12.108;2022-11-20T01:08:40;-6.10;99.90
37242;DHT22;23135;51.078;12.108;2022-11-20T01:11:09;-6.10;99.90
37242;DHT22;23135;51.078;12.108;2022-11-20T01:13:36;-6.10;99.90
37242;DHT22;23135;51.078;12.108;2022-11-20T01:16:16;-6.10;99.90
37242;DHT22;23135;51.078;12.108;2022-11-20T01:18:44;-6.00;99.90
37242;DHT22;23135;51.078;12.108;2022-11-20T01:21:13;-6.00;99.90
37242;DHT22;23135;51.078;12.108;2022-11-20T01:23:41;-6.00;99.90
37242;DHT22;23135;51.078;12.108;2022-11-20T01:26:09;-6.00;99.90
37242;DHT22;23135;51.078;12.108;2022-11-20T01:28:37;-6.00;99.90
37242;DHT22;23135;51.078;12.108;2022-11-20T01:31:13;-6.00;99.90
37242;DHT22;23135;51.078;12.108;2022-11-20T01:33:40;-6.00;99.90
37242;DHT22;23135;51.078;12.108;2022-11-20T01:36:07;-6.00;99.90
37242;DHT22;23135;51.078;12.108;2022-11-20T01:38:33;-6.00;99.90
37242;DHT22;23135;51.078;12.108;2022-11-20T01:40:58;-6.10;99.90
37242;DHT22;23135;51.078;12.108;2022-11-20T01:43:25;-6.10;99.90
37242;DHT22;23135;51.078;12.108;2022-11-20T01:46:23;-6.10;99.90
37242;DHT22;23135;51.078;12.108;2022-11-20T01:51:41;-6.20;99.90
37242;DHT22;23135;51.078;12.108;2022-11-20T01:54:12;-6.30;99.90
37242;DHT22;23135;51.078;12.108;2022-11-20T01:56:43;-6.20;99.90
37242;DHT22;23135;51.078;12.108;2022-11-20T01:59:10;-6.30;99.90
37242;DHT22;23135;51.078;12.108;2022-11-20T02:01:38;-6.20;99.90
37242;DHT22;23135;51.078;12.108;2022-11-20T02:04:05;-6.20;99.90
37242;DHT22;23135;51.078;12.108;2022-11-20T02:07:06;-6.20;99.90
37242;DHT22;23135;51.078;12.108;2022-11-20T02:09:32;-6.20;99.90
37242;DHT22;23135;51.078;12.108;2022-11-20T02:11:59;-6.20;99.90
37242;DHT22;23135;51.078;12.108;2022-11-20T02:14:25;-6.20;99.90
37242;DHT22;23135;51.078;12.108;2022-11-20T02:16:51;-6.30;99.90
37242;DHT22;23135;51.078;12.108;2022-11-20T02:19:24;-6.30;99.90
37242;DHT22;23135;51.078;12.108;2022-11-20T02:22:22;-6.30;99.90
37242;DHT22;23135;51.078;12.108;2022-11-20T02:24:51;-6.30;99.90
37242;DHT22;23135;51.078;12.108;2022-11-20T02:27:17;-6.20;99.90
37242;DHT22;23135;51.078;12.108;2022-11-20T02:29:55;-6.30;99.90
37242;DHT22;23135;51.078;12.108;2022-11-20T02:32:31;-6.30;99.90
37242;DHT22;23135;51.078;12.108;2022-11-20T02:34:57;-6.30;99.90
37242;DHT22;23135;51.078;12.108;2022-11-20T02:37:30;-6.30;99.90
37242;DHT22;23135;51.078;12.108;2022-11-20T02:39:56;-6.30;99.90
37242;DHT22;23135;51.078;12.108;2022-11-20T02:42:22;-6.30;99.90
37242;DHT22;23135;51.078;12.108;2022-11-20T02:44:47;-6.30;99.90
37242;DHT22;23135;51.078;12.108;2022-11-20T02:47:13;-6.40;99.90
37242;DHT22;23135;51.078;12.108;2022-11-20T02:49:39;-6.40;99.90
37242;DHT22;23135;51.078;12.108;2022-11-20T02:52:04;-6.40;99.90
37242;DHT22;23135;51.078;12.108;2022-11-20T02:54:30;-6.50;99.90
37242;DHT22;23135;51.078;12.108;2022-11-20T02:56:56;-6.50;99.90
37242;DHT22;23135;51.078;12.108;2022-11-20T02:59:21;-6.50;99.90
37242;DHT22;23135;51.078;12.108;2022-11-20T03:01:47;-6.50;99.90
37242;DHT22;23135;51.078;12.108;2022-11-20T03:04:13;-6.50;99.90
37242;DHT22;23135;51.078;12.108;2022-11-20T03:06:38;-6.50;99.90
37242;DHT22;23135;51.078;12.108;2022-11-20T03:09:04;-6.50;99.90
37242;DHT22;23135;51.078;12.108;2022-11-20T03:11:30;-6.50;99.90
37242;DHT22;23135;51.078;12.108;2022-11-20T03:13:56;-6.50;99.90
37242;DHT22;23135;51.078;12.108;2022-11-20T03:16:22;-6.60;99.90
37242;DHT22;23135;51.078;12.108;2022-11-20T03:18:48;-6.60;99.90
37242;DHT22;23135;51.078;12.108;2022-11-20T03:21:15;-6.60;99.90
37242;DHT22;23135;51.078;12.108;2022-11-20T03:23:40;-6.60;99.90
37242;DHT22;23135;51.078;12.108;2022-11-20T03:26:16;-6.60;99.90
37242;DHT22;23135;51.078;12.108;2022-11-20T03:28:47;-6.60;99.90
37242;DHT22;23135;51.078;12.108;2022-11-20T03:31:14;-6.70;99.90
37242;DHT22;23135;51.078;12.108;2022-11-20T03:33:41;-6.70;99.90
37242;DHT22;23135;51.078;12.108;2022-11-20T03:36:13;-6.70;99.90
37242;DHT22;23135;51.078;12.108;2022-11-20T03:38:39;-6.70;99.90
37242;DHT22;23135;51.078;12.108;2022-11-20T03:41:19;-6.70;99.90
37242;DHT22;23135;51.078;12.108;2022-11-20T03:43:49;-6.70;99.90
37242;DHT22;23135;51.078;12.108;2022-11-20T03:46:15;-6.70;99.90
37242;DHT22;23135;51.078;12.108;2022-11-20T03:48:41;-6.70;99.90
37242;DHT22;23135;51.078;12.108;2022-11-20T03:51:12;-6.70;99.90
37242;DHT22;23135;51.078;12.108;2022-11-20T03:53:39;-6.70;99.90
37242;DHT22;23135;51.078;12.108;2022-11-20T03:56:06;-6.80;99.90
37242;DHT22;23135;51.078;12.108;2022-11-20T03:58:33;-6.80;99.90
37242;DHT22;23135;51.078;12.108;2022-11-20T04:01:14;-6.80;99.90
37242;DHT22;23135;51.078;12.108;2022-11-20T04:03:42;-6.80;99.90
37242;DHT22;23135;51.078;12.108;2022-11-20T04:06:12;-6.80;99.90
37242;DHT22;23135;51.078;12.108;2022-11-20T04:08:38;-6.80;99.90
37242;DHT22;23135;51.078;12.108;2022-11-20T04:11:18;-6.70;99.90
37242;DHT22;23135;51.078;12.108;2022-11-20T04:14:04;-6.70;99.90
37242;DHT22;23135;51.078;12.108;2022-11-20T04:16:33;-6.70;99.90
37242;DHT22;23135;51.078;12.108;2022-11-20T04:19:00;-6.70;99.90
37242;DHT22;23135;51.078;12.108;2022-11-20T04:21:27;-6.70;99.90
37242;DHT22;23135;51.078;12.108;2022-11-20T04:23:53;-6.70;99.90
37242;DHT22;23135;51.078;12.108;2022-11-20T04:26:21;-6.80;99.90
37242;DHT22;23135;51.078;12.108;2022-11-20T04:28:46;-6.80;99.90
37242;DHT22;23135;51.078;12.108;2022-11-20T04:31:14;-6.90;99.90
37242;DHT22;23135;51.078;12.108;2022-11-20T04:33:40;-6.90;99.90
37242;DHT22;23135;51.078;12.108;2022-11-20T04:36:11;-6.90;99.90
37242;DHT22;23135;51.078;12.108;2022-11-20T04:38:38;-6.80;99.90
37242;DHT22;23135;51.078;12.108;2022-11-20T04:41:05;-6.80;99.90
37242;DHT22;23135;51.078;12.108;2022-11-20T04:43:32;-6.80;99.90
37242;DHT22;23135;51.078;12.108;2022-11-20T04:45:58;-6.80;99.90
37242;DHT22;23135;51.078;12.108;2022-11-20T04:48:25;-6.90;99.90
37242;DHT22;23135;51.078;12.108;2022-11-20T04:50:52;-6.90;99.90
37242;DHT22;23135;51.078;12.108;2022-11-20T04:53:18;-6.90;99.90
37242;DHT22;23135;51.078;12.108;2022-11-20T04:55:44;-6.90;99.90
37242;DHT22;23135;51.078;12.108;2022-11-20T04:58:10;-6.90;99.90
37242;DHT22;23135;51.078;12.108;2022-11-20T05:00:35;-7.00;99.90
37242;DHT22;23135;51.078;12.108;2022-11-20T05:03:01;-7.00;99.90
37242;DHT22;23135;51.078;12.108;2022-11-20T05:05:27;-7.10;99.90
37242;DHT22;23135;51.078;12.108;2022-11-20T05:07:52;-7.10;99.90
37242;DHT22;23135;51.078;12.108;2022-11-20T05:10:18;-7.10;99.90
37242;DHT22;23135;51.078;12.108;2022-11-20T05:12:44;-7.10;99.90
37242;DHT22;23135;51.078;12.108;2022-11-20T05:15:09;-7.10;99.90
37242;DHT22;23135;51.078;12.108;2022-11-20T05:17:35;-7.10;99.90
37242;DHT22;23135;51.078;12.108;2022-11-20T05:20:01;-7.10;99.90
37242;DHT22;23135;51.078;12.108;2022-11-20T05:22:26;-7.10;99.90
37242;DHT22;23135;51.078;12.108;2022-11-20T05:24:52;-7.00;99.90
37242;DHT22;23135;51.078;12.108;2022-11-20T05:27:17;-7.00;99.90
37242;DHT22;23135;51.078;12.108;2022-11-20T05:29:43;-7.00;99.90
37242;DHT22;23135;51.078;12.108;2022-11-20T05:32:09;-7.00;99.90
37242;DHT22;23135;51.078;12.108;2022-11-20T05:34:35;-7.00;99.90
37242;DHT22;23135;51.078;12.108;2022-11-20T05:37:01;-7.00;99.90
37242;DHT22;23135;51.078;12.108;2022-11-20T05:39:27;-7.00;99.90
37242;DHT22;23135;51.078;12.108;2022-11-20T05:41:53;-7.00;99.90
37242;DHT22;23135;51.078;12.108;2022-11-20T05:44:38;-7.10;99.90
37242;DHT22;23135;51.078;12.108;2022-11-20T05:47:04;-7.10;99.90
37242;DHT22;23135;51.078;12.108;2022-11-20T05:49:30;-7.10;99.90
37242;DHT22;23135;51.078;12.108;2022-11-20T05:51:55;-7.10;99.90
37242;DHT22;23135;51.078;12.108;2022-11-20T05:54:21;-7.10;99.90
37242;DHT22;23135;51.078;12.108;2022-11-20T05:56:46;-7.10;99.90
37242;DHT22;23135;51.078;12.108;2022-11-20T05:59:12;-7.20;99.90
37242;DHT22;23135;51.078;12.108;2022-11-20T06:01:38;-7.20;99.90
37242;DHT22;23135;51.078;12.108;2022-11-20T06:04:03;-7.10;99.90
37242;DHT22;23135;51.078;12.108;2022-11-20T06:06:29;-7.10;99.90
37242;DHT22;23135;51.078;12.108;2022-11-20T06:08:55;-7.10;99.90
37242;DHT22;23135;51.078;12.108;2022-11-20T06:11:21;-7.10;99.90
37242;DHT22;23135;51.078;12.108;2022-11-20T06:13:48;-7.10;99.90
37242;DHT22;23135;51.078;12.108;2022-11-20T06:16:16;-7.10;99.90
37242;DHT22;23135;51.078;12.108;2022-11-20T06:18:42;-7.10;99.90
37242;DHT22;23135;51.078;12.108;2022-11-20T06:21:10;-7.10;99.90
37242;DHT22;23135;51.078;12.108;2022-11-20T06:23:36;-7.10;99.90
37242;DHT22;23135;51.078;12.108;2022-11-20T06:26:07;-7.10;99.90
37242;DHT22;23135;51.078;12.108;2022-11-20T06:28:33;-7.10;99.90
37242;DHT22;23135;51.078;12.108;2022-11-20T06:30:58;-7.10;99.90
37242;DHT22;23135;51.078;12.108;2022-11-20T06:33:24;-7.10;99.90
37242;DHT22;23135;51.078;12.108;2022-11-20T06:35:50;-7.10;99.90
37242;DHT22;23135;51.078;12.108;2022-11-20T06:38:16;-7.00;99.90
37242;DHT22;23135;51.078;12.108;2022-11-20T06:40:42;-7.00;99.90
37242;DHT22;23135;51.078;12.108;2022-11-20T06:43:11;-7.00;99.90
37242;DHT22;23135;51.078;12.108;2022-11-20T06:45:37;-6.90;99.90
37242;DHT22;23135;51.078;12.108;2022-11-20T06:48:03;-6.80;99.90
37242;DHT22;23135;51.078;12.108;2022-11-20T06:50:28;-6.80;99.90
37242;DHT22;23135;51.078;12.108;2022-11-20T06:52:54;-6.80;99.90
37242;DHT22;23135;51.078;12.108;2022-11-20T06:55:20;-6.80;99.90
37242;DHT22;23135;51.078;12.108;2022-11-20T06:57:45;-6.80;99.90
37242;DHT22;23135;51.078;12.108;2022-11-20T07:00:11;-6.70;99.90
37242;DHT22;23135;51.078;12.108;2022-11-20T07:02:37;-6.80;99.90
37242;DHT22;23135;51.078;12.108;2022-11-20T07:05:03;-6.80;99.90
37242;DHT22;23135;51.078;12.108;2022-11-20T07:07:29;-6.80;99.90
37242;DHT22;23135;51.078;12.108;2022-11-20T07:09:54;-6.80;99.90
37242;DHT22;23135;51.078;12.108;2022-11-20T07:12:21;-6.90;99.90
37242;DHT22;23135;51.078;12.108;2022-11-20T07:14:46;-6.90;99.90
37242;DHT22;23135;51.078;12.108;2022-11-20T07:17:12;-6.90;99.90
37242;DHT22;23135;51.078;12.108;2022-11-20T07:19:38;-6.90;99.90
37242;DHT22;23135;51.078;12.108;2022-11-20T07:22:03;-6.90;99.90
37242;DHT22;23135;51.078;12.108;2022-11-20T07:24:29;-6.80;99.90
37242;DHT22;23135;51.078;12.108;2022-11-20T07:26:54;-6.80;99.90
37242;DHT22;23135;51.078;12.108;2022-11-20T07:29:20;-6.80;99.90
37242;DHT22;23135;51.078;12.108;2022-11-20T07:31:46;-6.80;99.90
37242;DHT22;23135;51.078;12.108;2022-11-20T07:34:11;-6.70;99.90
37242;DHT22;23135;51.078;12.108;2022-11-20T07:36:37;-6.60;99.90
37242;DHT22;23135;51.078;12.108;2022-11-20T07:39:02;-6.50;99.90
37242;DHT22;23135;51.078;12.108;2022-11-20T07:41:28;-6.40;99.90
37242;DHT22;23135;51.078;12.108;2022-11-20T07:43:54;-6.30;99.90
37242;DHT22;23135;51.078;12.108;2022-11-20T07:46:20;-6.30;99.90
37242;DHT22;23135;51.078;12.108;2022-11-20T07:48:45;-6.20;99.90
37242;DHT22;23135;51.078;12.108;2022-11-20T07:51:11;-6.00;99.90
37242;DHT22;23135;51.078;12.108;2022-11-20T07:53:36;-5.90;99.90
37242;DHT22;23135;51.078;12.108;2022-11-20T07:56:03;-5.80;99.90
37242;DHT22;23135;51.078;12.108;2022-11-20T07:58:29;-5.70;99.90
37242;DHT22;23135;51.078;12.108;2022-11-20T08:00:55;-5.60;99.90
37242;DHT22;23135;51.078;12.108;2022-11-20T08:03:21;-5.50;99.90
37242;DHT22;23135;51.078;12.108;2022-11-20T08:05:46;-5.50;99.90
37242;DHT22;23135;51.078;12.108;2022-11-20T08:08:12;-5.40;99.90
37242;DHT22;23135;51.078;12.108;2022-11-20T08:10:38;-5.30;99.90
37242;DHT22;23135;51.078;12.108;2022-11-20T08:13:03;-5.10;99.90
37242;DHT22;23135;51.078;12.108;2022-11-20T08:15:51;-5.00;99.90
37242;DHT22;23135;51.078;12.108;2022-11-20T08:18:17;-4.70;99.90
37242;DHT22;23135;51.078;12.108;2022-11-20T08:20:43;-4.50;99.90
37242;DHT22;23135;51.078;12.108;2022-11-20T08:23:09;-4.30;99.90
37242;DHT22;23135;51.078;12.108;2022-11-20T08:25:36;-4.20;99.90
37242;DHT22;23135;51.078;12.108;2022-11-20T08:28:04;-4.10;99.90
37242;DHT22;23135;51.078;12.108;2022-11-20T08:30:30;-4.00;99.90
37242;DHT22;23135;51.078;12.108;2022-11-20T08:33:01;-3.90;99.90
37242;DHT22;23135;51.078;12.108;2022-11-20T08:35:27;-3.70;99.90
37242;DHT22;23135;51.078;12.108;2022-11-20T08:37:53;-3.50;99.90
37242;DHT22;23135;51.078;12.108;2022-11-20T08:40:18;-3.30;99.90
37242;DHT22;23135;51.078;12.108;2022-11-20T08:42:50;-3.20;99.90
37242;DHT22;23135;51.078;12.108;2022-11-20T08:45:18;-3.20;99.90
37242;DHT22;23135;51.078;12.108;2022-11-20T08:47:44;-3.20;99.90
37242;DHT22;23135;51.078;12.108;2022-11-20T08:50:11;-3.10;99.90
37242;DHT22;23135;51.078;12.108;2022-11-20T08:52:38;-3.10;99.90
37242;DHT22;23135;51.078;12.108;2022-11-20T08:55:04;-3.00;99.90
37242;DHT22;23135;51.078;12.108;2022-11-20T08:57:32;-2.90;99.90
37242;DHT22;23135;51.078;12.108;2022-11-20T08:59:58;-2.80;99.90
37242;DHT22;23135;51.078;12.108;2022-11-20T09:02:24;-2.70;99.90
37242;DHT22;23135;51.078;12.108;2022-11-20T09:04:49;-2.60;99.90
37242;DHT22;23135;51.078;12.108;2022-11-20T09:07:15;-2.50;99.90
37242;DHT22;23135;51.078;12.108;2022-11-20T09:09:40;-2.30;99.90
37242;DHT22;23135;51.078;12.108;2022-11-20T09:12:06;-2.20;99.90
37242;DHT22;23135;51.078;12.108;2022-11-20T09:14:32;-2.10;99.90
37242;DHT22;23135;51.078;12.108;2022-11-20T09:16:59;-2.00;99.90
37242;DHT22;23135;51.078;12.108;2022-11-20T09:19:24;-1.90;99.90
37242;DHT22;23135;51.078;12.108;2022-11-20T09:21:51;-1.90;99.90
37242;DHT22;23135;51.078;12.108;2022-11-20T09:24:17;-1.70;99.90
37242;DHT22;23135;51.078;12.108;2022-11-20T09:26:42;-1.70;99.90
37242;DHT22;23135;51.078;12.108;2022-11-20T09:29:08;-1.60;99.90
37242;DHT22;23135;51.078;12.108;2022-11-20T09:31:34;-1.60;99.90
37242;DHT22;23135;51.078;12.108;2022-11-20T09:33:59;-1.60;99.90
37242;DHT22;23135;51.078;12.108;2022-11-20T09:36:25;-1.50;99.90
37242;DHT22;23135;51.078;12.108;2022-11-20T09:38:51;-1.40;99.90
37242;DHT22;23135;51.078;12.108;2022-11-20T09:46:33;-1.00;99.90
37242;DHT22;23135;51.078;12.108;2022-11-20T09:49:19;-0.80;99.90
37242;DHT22;23135;51.078;12.108;2022-11-20T09:51:57;-0.60;99.90
37242;DHT22;23135;51.078;12.108;2022-11-20T09:54:50;-0.50;99.90
37242;DHT22;23135;51.078;12.108;2022-11-20T09:57:21;-0.40;99.90
37242;DHT22;23135;51.078;12.108;2022-11-20T09:59:55;-0.30;99.90
37242;DHT22;23135;51.078;12.108;2022-11-20T10:02:30;-0.30;99.90
37242;DHT22;23135;51.078;12.108;2022-11-20T10:05:10;-0.30;99.90
37242;DHT22;23135;51.078;12.108;2022-11-20T10:08:14;-0.30;99.90
37242;DHT22;23135;51.078;12.108;2022-11-20T10:29:58;-0.70;99.90
37242;DHT22;23135;51.078;12.108;2022-11-20T10:32:31;-0.70;99.90
37242;DHT22;23135;51.078;12.108;2022-11-20T10:37:31;-0.70;99.90
37242;DHT22;23135;51.078;12.108;2022-11-20T10:40:22;-0.70;99.90
37242;DHT22;23135;51.078;12.108;2022-11-20T10:42:54;-0.70;99.90
37242;DHT22;23135;51.078;12.108;2022-11-20T10:47:54;-0.40;99.90
37242;DHT22;23135;51.078;12.108;2022-11-20T10:50:21;-0.20;99.90
37242;DHT22;23135;51.078;12.108;2022-11-20T10:53:19;-0.10;99.90
37242;DHT22;23135;51.078;12.108;2022-11-20T10:55:56;-0.10;99.90
37242;DHT22;23135;51.078;12.108;2022-11-20T10:58:35;-0.30;99.90
37242;DHT22;23135;51.078;12.108;2022-11-20T11:01:15;-0.40;99.90
37242;DHT22;23135;51.078;12.108;2022-11-20T11:03:42;-0.40;99.90
37242;DHT22;23135;51.078;12.108;2022-11-20T11:08:44;-0.50;99.90
37242;DHT22;23135;51.078;12.108;2022-11-20T11:11:21;-0.50;99.90
37242;DHT22;23135;51.078;12.108;2022-11-20T11:13:48;-0.40;99.90
37242;DHT22;23135;51.078;12.108;2022-11-20T11:16:23;-0.10;99.90
37242;DHT22;23135;51.078;12.108;2022-11-20T11:18:49;0.00;99.90
37242;DHT22;23135;51.078;12.108;2022-11-20T11:21:24;0.00;99.90
37242;DHT22;23135;51.078;12.108;2022-11-20T11:23:58;-0.10;99.90
37242;DHT22;23135;51.078;12.108;2022-11-20T11:26:24;0.00;99.90
37242;DHT22;23135;51.078;12.108;2022-11-20T11:28:59;0.00;99.90
37242;DHT22;23135;51.078;12.108;2022-11-20T11:31:33;0.20;99.90
37242;DHT22;23135;51.078;12.108;2022-11-20T11:34:16;0.30;99.90
37242;DHT22;23135;51.078;12.108;2022-11-20T11:36:52;0.30;99.90
37242;DHT22;23135;51.078;12.108;2022-11-20T11:39:20;0.30;99.90
37242;DHT22;23135;51.078;12.108;2022-11-20T11:41:47;0.50;99.90
37242;DHT22;23135;51.078;12.108;2022-11-20T11:44:32;0.60;99.90
37242;DHT22;23135;51.078;12.108;2022-11-20T11:50:23;0.80;99.90
37242;DHT22;23135;51.078;12.108;2022-11-20T11:52:56;1.00;99.90
37242;DHT22;23135;51.078;12.108;2022-11-20T11:55:46;0.90;99.90
37242;DHT22;23135;51.078;12.108;2022-11-20T12:01:07;0.90;99.90
37242;DHT22;23135;51.078;12.108;2022-11-20T12:03:39;1.00;99.90
37242;DHT22;23135;51.078;12.108;2022-11-20T12:06:14;1.00;99.90
37242;DHT22;23135;51.078;12.108;2022-11-20T12:08:49;0.90;99.90
37242;DHT22;23135;51.078;12.108;2022-11-20T12:11:17;0.90;99.90
37242;DHT22;23135;51.078;12.108;2022-11-20T12:13:56;0.70;99.90
37242;DHT22;23135;51.078;12.108;2022-11-20T12:16:23;0.50;99.90
37242;DHT22;23135;51.078;12.108;2022-11-20T12:18:51;0.40;99.90
37242;DHT22;23135;51.078;12.108;2022-11-20T12:21:20;0.40;99.90
37242;DHT22;23135;51.078;12.108;2022-11-20T12:35:00;0.40;99.90
37242;DHT22;23135;51.078;12.108;2022-11-20T12:37:51;0.30;99.90
37242;DHT22;23135;51.078;12.108;2022-11-20T12:51:29;0.50;99.90
37242;DHT22;23135;51.078;12.108;2022-11-20T13:02:27;0.20;99.90
37242;DHT22;23135;51.078;12.108;2022-11-20T13:07:43;0.00;99.90
37242;DHT22;23135;51.078;12.108;2022-11-20T13:10:18;0.00;99.90
37242;DHT22;23135;51.078;12.108;2022-11-20T13:12:50;0.60;99.90
37242;DHT22;23135;51.078;12.108;2022-11-20T13:18:36;1.50;99.90
37242;DHT22;23135;51.078;12.108;2022-11-20T13:21:23;1.40;99.90
37242;DHT22;23135;51.078;12.108;2022-11-20T13:29:34;1.70;99.90
37242;DHT22;23135;51.078;12.108;2022-11-20T13:32:20;1.90;99.90
37242;DHT22;23135;51.078;12.108;2022-11-20T13:34:54;1.70;99.90
37242;DHT22;23135;51.078;12.108;2022-11-20T13:37:35;2.00;99.90
37242;DHT22;23135;51.078;12.108;2022-11-20T13:42:37;2.00;99.90
37242;DHT22;23135;51.078;12.108;2022-11-20T13:45:30;1.90;99.90
37242;DHT22;23135;51.078;12.108;2022-11-20T13:47:57;2.00;99.90
37242;DHT22;23135;51.078;12.108;2022-11-20T13:51:01;1.90;99.90
37242;DHT22;23135;51.078;12.108;2022-11-20T13:53:43;1.70;99.90
37242;DHT22;23135;51.078;12.108;2022-11-20T13:56:30;1.80;99.90
37242;DHT22;23135;51.078;12.108;2022-11-20T13:59:18;1.70;99.90
37242;DHT22;23135;51.078;12.108;2022-11-20T14:01:50;1.80;99.90
37242;DHT22;23135;51.078;12.108;2022-11-20T14:04:18;1.80;99.90
37242;DHT22;23135;51.078;12.108;2022-11-20T14:06:46;1.70;99.90
37242;DHT22;23135;51.078;12.108;2022-11-20T14:09:31;1.90;99.90
37242;DHT22;23135;51.078;12.108;2022-11-20T14:11:57;1.90;99.90
37242;DHT22;23135;51.078;12.108;2022-11-20T14:14:25;1.80;99.90
37242;DHT22;23135;51.078;12.108;2022-11-20T14:17:05;1.80;99.90
37242;DHT22;23135;51.078;12.108;2022-11-20T14:19:31;1.60;99.90
37242;DHT22;23135;51.078;12.108;2022-11-20T14:22:32;1.60;99.90
37242;DHT22;23135;51.078;12.108;2022-11-20T14:27:45;1.60;99.90
37242;DHT22;23135;51.078;12.108;2022-11-20T14:30:20;1.40;99.90
37242;DHT22;23135;51.078;12.108;2022-11-20T14:32:47;1.30;99.90
37242;DHT22;23135;51.078;12.108;2022-11-20T14:35:26;1.30;99.90
37242;DHT22;23135;51.078;12.108;2022-11-20T14:37:52;1.10;99.90
37242;DHT22;23135;51.078;12.108;2022-11-20T14:40:30;0.90;99.90
37242;DHT22;23135;51.078;12.108;2022-11-20T14:42:57;0.70;99.90
37242;DHT22;23135;51.078;12.108;2022-11-20T14:45:24;0.50;99.90
37242;DHT22;23135;51.078;12.108;2022-11-20T14:47:52;0.20;99.90
37242;DHT22;23135;51.078;12.108;2022-11-20T14:50:24;0.00;99.90
37242;DHT22;23135;51.078;12.108;2022-11-20T14:52:55;-0.10;99.90
37242;DHT22;23135;51.078;12.108;2022-11-20T14:55:36;-0.30;99.90
37242;DHT22;23135;51.078;12.108;2022-11-20T14:58:19;-0.40;99.90
37242;DHT22;23135;51.078;12.108;2022-11-20T15:01:14;-0.50;99.90
37242;DHT22;23135;51.078;12.108;2022-11-20T15:03:40;-0.50;99.90
37242;DHT22;23135;51.078;12.108;2022-11-20T15:06:09;-0.60;99.90
37242;DHT22;23135;51.078;12.108;2022-11-20T15:08:36;-0.60;99.90
37242;DHT22;23135;51.078;12.108;2022-11-20T15:11:01;-0.70;99.90
37242;DHT22;23135;51.078;12.108;2022-11-20T15:13:38;-0.70;99.90
37242;DHT22;23135;51.078;12.108;2022-11-20T15:16:20;-0.70;99.90
37242;DHT22;23135;51.078;12.108;2022-11-20T15:18:46;-0.80;99.90
37242;DHT22;23135;51.078;12.108;2022-11-20T15:21:14;-0.80;99.90
37242;DHT22;23135;51.078;12.108;2022-11-20T15:23:40;-0.90;99.90
37242;DHT22;23135;51.078;12.108;2022-11-20T15:26:07;-0.90;99.90
37242;DHT22;23135;51.078;12.108;2022-11-20T15:31:03;-0.90;99.90
37242;DHT22;23135;51.078;12.108;2022-11-20T15:33:30;-1.00;99.90
37242;DHT22;23135;51.078;12.108;2022-11-20T15:35:56;-0.90;99.90
37242;DHT22;23135;51.078;12.108;2022-11-20T15:38:22;-1.00;99.90
37242;DHT22;23135;51.078;12.108;2022-11-20T15:40:48;-1.00;99.90
37242;DHT22;23135;51.078;12.108;2022-11-20T15:43:14;-1.00;99.90
37242;DHT22;23135;51.078;12.108;2022-11-20T15:46:15;-1.00;99.90
37242;DHT22;23135;51.078;12.108;2022-11-20T15:48:45;-1.10;99.90
37242;DHT22;23135;51.078;12.108;2022-11-20T15:51:33;-1.10;99.90
37242;DHT22;23135;51.078;12.108;2022-11-20T15:54:00;-1.20;99.90
37242;DHT22;23135;51.078;12.108;2022-11-20T15:56:26;-1.30;99.90
37242;DHT22;23135;51.078;12.108;2022-11-20T15:58:52;-1.30;99.90
37242;DHT22;23135;51.078;12.108;2022-11-20T16:01:20;-1.30;99.90
37242;DHT22;23135;51.078;12.108;2022-11-20T16:03:46;-1.30;99.90
37242;DHT22;23135;51.078;12.108;2022-11-20T16:06:12;-1.40;99.90
37242;DHT22;23135;51.078;12.108;2022-11-20T16:08:38;-1.40;99.90
37242;DHT22;23135;51.078;12.108;2022-11-20T16:11:04;-1.40;99.90
37242;DHT22;23135;51.078;12.108;2022-11-20T16:13:31;-1.50;99.90
37242;DHT22;23135;51.078;12.108;2022-11-20T16:18:54;-1.50;99.90
37242;DHT22;23135;51.078;12.108;2022-11-20T16:21:20;-1.50;99.90
37242;DHT22;23135;51.078;12.108;2022-11-20T16:23:45;-1.50;99.90
37242;DHT22;23135;51.078;12.108;2022-11-20T16:26:16;-1.50;99.90
37242;DHT22;23135;51.078;12.108;2022-11-20T16:28:42;-1.50;99.90
37242;DHT22;23135;51.078;12.108;2022-11-20T16:31:13;-1.60;99.90
37242;DHT22;23135;51.078;12.108;2022-11-20T16:33:39;-1.60;99.90
37242;DHT22;23135;51.078;12.108;2022-11-20T16:36:13;-1.70;99.90
37242;DHT22;23135;51.078;12.108;2022-11-20T16:38:39;-1.70;99.90
37242;DHT22;23135;51.078;12.108;2022-11-20T16:41:05;-1.70;99.90
37242;DHT22;23135;51.078;12.108;2022-11-20T16:43:31;-1.70;99.90
37242;DHT22;23135;51.078;12.108;2022-11-20T16:45:57;-1.70;99.90
37242;DHT22;23135;51.078;12.108;2022-11-20T16:48:23;-1.80;99.90
37242;DHT22;23135;51.078;12.108;2022-11-20T16:50:52;-1.80;99.90
37242;DHT22;23135;51.078;12.108;2022-11-20T16:53:19;-1.80;99.90
37242;DHT22;23135;51.078;12.108;2022-11-20T16:55:46;-1.70;99.90
37242;DHT22;23135;51.078;12.108;2022-11-20T16:58:12;-1.70;99.90
37242;DHT22;23135;51.078;12.108;2022-11-20T17:00:40;-1.70;99.90
37242;DHT22;23135;51.078;12.108;2022-11-20T17:03:07;-1.70;99.90
37242;DHT22;23135;51.078;12.108;2022-11-20T17:05:33;-1.60;99.90